sensor_id;sensor_type;location;lat;lon;timestamp;temperature;humidity
64501;DHT22;50874;24.150;-110.320;2024-03-08T00:00:44;26.60;53.80
64501;DHT22;50874;24.150;-110.320;2024-03-08T00:03:11;26.50;56.20
64501;DHT22;50874;24.150;-110.320;2024-03-08T00:05:37;26.60;56.80
64501;DHT22;50874;24.150;-110.320;2024-03-08T00:08:07;26.60;57.10
64501;DHT22;50874;24.150;-110.320;2024-03-08T00:10:35;26.60;57.70
64501;DHT22;50874;24.150;-110.320;2024-03-08T00:13:02;26.50;57.70
64501;DHT22;50874;24.150;-110.320;2024-03-08T00:15:30;26.40;58.50
64501;DHT22;50874;24.150;-110.320;2024-03-08T00:17:58;26.40;59.10
64501;DHT22;50874;24.150;-110.320;2024-03-08T00:20:24;26.30;58.90
64501;DHT22;50874;24.150;-110.320;2024-03-08T00:22:51;26.40;59.60
64501;DHT22;50874;24.150;-110.320;2024-03-08T00:25:17;26.40;59.30
64501;DHT22;50874;24.150;-110.320;2024-03-08T00:27:44;26.20;58.70
64501;DHT22;50874;24.150;-110.320;2024-03-08T00:30:11;26.30;59.80
64501;DHT22;50874;24.150;-110.320;2024-03-08T00:32:39;26.30;59.70
64501;DHT22;50874;24.150;-110.320;2024-03-08T00:35:05;26.40;59.30
64501;DHT22;50874;24.150;-110.320;2024-03-08T00:37:35;26.30;60.10
64501;DHT22;50874;24.150;-110.320;2024-03-08T00:40:01;26.20;59.80
64501;DHT22;50874;24.150;-110.320;2024-03-08T00:42:28;26.10;59.80
64501;DHT22;50874;24.150;-110.320;2024-03-08T00:44:54;26.00;60.00
64501;DHT22;50874;24.150;-110.320;2024-03-08T00:47:21;25.90;60.60
64501;DHT22;50874;24.150;-110.320;2024-03-08T00:49:47;25.90;61.30
64501;DHT22;50874;24.150;-110.320;2024-03-08T00:52:14;25.90;61.50
64501;DHT22;50874;24.150;-110.320;2024-03-08T00:54:40;26.00;61.60
64501;DHT22;50874;24.150;-110.320;2024-03-08T00:57:08;25.90;62.80
64501;DHT22;50874;24.150;-110.320;2024-03-08T00:59:37;25.80;63.40
64501;DHT22;50874;24.150;-110.320;2024-03-08T01:02:03;25.80;64.20
64501;DHT22;50874;24.150;-110.320;2024-03-08T01:04:30;25.70;64.00
64501;DHT22;50874;24.150;-110.320;2024-03-08T01:06:57;25.70;63.70
64501;DHT22;50874;24.150;-110.320;2024-03-08T01:09:25;25.70;63.80
64501;DHT22;50874;24.150;-110.320;2024-03-08T01:11:53;25.70;63.80
64501;DHT22;50874;24.150;-110.320;2024-03-08T01:14:25;25.60;63.70
64501;DHT22;50874;24.150;-110.320;2024-03-08T01:16:52;25.60;64.20
64501;DHT22;50874;24.150;-110.320;2024-03-08T01:19:18;25.40;64.50
64501;DHT22;50874;24.150;-110.320;2024-03-08T01:21:45;25.30;65.00
64501;DHT22;50874;24.150;-110.320;2024-03-08T01:24:12;25.10;65.30
64501;DHT22;50874;24.150;-110.320;2024-03-08T01:26:38;25.10;66.30
64501;DHT22;50874;24.150;-110.320;2024-03-08T01:29:05;25.00;67.90
64501;DHT22;50874;24.150;-110.320;2024-03-08T01:31:32;25.00;69.20
64501;DHT22;50874;24.150;-110.320;2024-03-08T01:33:59;24.90;69.70
64501;DHT22;50874;24.150;-110.320;2024-03-08T01:36:25;24.90;70.40
64501;DHT22;50874;24.150;-110.320;2024-03-08T01:38:52;24.90;70.70
64501;DHT22;50874;24.150;-110.320;2024-03-08T01:41:19;24.80;71.30
64501;DHT22;50874;24.150;-110.320;2024-03-08T01:43:45;24.80;72.80
64501;DHT22;50874;24.150;-110.320;2024-03-08T01:46:16;24.70;76.50
64501;DHT22;50874;24.150;-110.320;2024-03-08T01:48:43;24.60;82.30
64501;DHT22;50874;24.150;-110.320;2024-03-08T01:51:11;24.40;91.90
64501;DHT22;50874;24.150;-110.320;2024-03-08T01:53:38;24.30;98.20
64501;DHT22;50874;24.150;-110.320;2024-03-08T01:56:06;24.10;99.90
64501;DHT22;50874;24.150;-110.320;2024-03-08T01:58:33;24.00;99.90
64501;DHT22;50874;24.150;-110.320;2024-03-08T02:01:00;23.70;99.90
64501;DHT22;50874;24.150;-110.320;2024-03-08T02:03:30;23.60;99.90
64501;DHT22;50874;24.150;-110.320;2024-03-08T02:05:57;23.50;99.90
64501;DHT22;50874;24.150;-110.320;2024-03-08T02:08:25;23.40;99.90
64501;DHT22;50874;24.150;-110.320;2024-03-08T02:10:51;23.30;99.90
64501;DHT22;50874;24.150;-110.320;2024-03-08T02:13:18;23.10;99.90
64501;DHT22;50874;24.150;-110.320;2024-03-08T02:15:59;23.00;99.90
64501;DHT22;50874;24.150;-110.320;2024-03-08T02:18:26;22.90;99.90
64501;DHT22;50874;24.150;-110.320;2024-03-08T02:20:56;22.90;99.90
64501;DHT22;50874;24.150;-110.320;2024-03-08T02:23:24;22.90;99.90
64501;DHT22;50874;24.150;-110.320;2024-03-08T02:25:51;22.90;99.90
64501;DHT22;50874;24.150;-110.320;2024-03-08T02:28:19;22.80;99.90
64501;DHT22;50874;24.150;-110.320;2024-03-08T02:30:49;22.70;99.90
64501;DHT22;50874;24.150;-110.320;2024-03-08T02:33:22;22.70;99.90
64501;DHT22;50874;24.150;-110.320;2024-03-08T02:35:49;22.60;99.90
64501;DHT22;50874;24.150;-110.320;2024-03-08T02:38:21;22.50;99.90
64501;DHT22;50874;24.150;-110.320;2024-03-08T02:40:49;22.50;99.90
64501;DHT22;50874;24.150;-110.320;2024-03-08T02:43:17;22.40;99.90
64501;DHT22;50874;24.150;-110.320;2024-03-08T02:45:44;22.40;99.90
64501;DHT22;50874;24.150;-110.320;2024-03-08T02:48:14;22.40;99.90
64501;DHT22;50874;24.150;-110.320;2024-03-08T02:50:43;22.40;99.90
64501;DHT22;50874;24.150;-110.320;2024-03-08T02:53:11;22.30;99.90
64501;DHT22;50874;24.150;-110.320;2024-03-08T02:55:39;22.20;99.90
64501;DHT22;50874;24.150;-110.320;2024-03-08T02:58:07;22.10;99.90
64501;DHT22;50874;24.150;-110.320;2024-03-08T03:00:39;22.10;99.90
64501;DHT22;50874;24.150;-110.320;2024-03-08T03:03:07;22.00;99.90
64501;DHT22;50874;24.150;-110.320;2024-03-08T03:05:34;21.80;99.90
64501;DHT22;50874;24.150;-110.320;2024-03-08T03:08:00;21.80;99.90
64501;DHT22;50874;24.150;-110.320;2024-03-08T03:10:27;21.70;99.90
64501;DHT22;50874;24.150;-110.320;2024-03-08T03:12:53;21.70;99.90
64501;DHT22;50874;24.150;-110.320;2024-03-08T03:15:20;21.70;99.90
64501;DHT22;50874;24.150;-110.320;2024-03-08T03:17:47;21.60;99.90
64501;DHT22;50874;24.150;-110.320;2024-03-08T03:20:14;21.60;99.90
64501;DHT22;50874;24.150;-110.320;2024-03-08T03:22:49;21.60;99.90
64501;DHT22;50874;24.150;-110.320;2024-03-08T03:25:22;21.60;99.90
64501;DHT22;50874;24.150;-110.320;2024-03-08T03:27:55;21.60;99.90
64501;DHT22;50874;24.150;-110.320;2024-03-08T03:30:24;21.60;99.90
64501;DHT22;50874;24.150;-110.320;2024-03-08T03:32:53;21.60;99.90
64501;DHT22;50874;24.150;-110.320;2024-03-08T03:35:27;21.50;99.90
64501;DHT22;50874;24.150;-110.320;2024-03-08T03:37:54;21.40;99.90
64501;DHT22;50874;24.150;-110.320;2024-03-08T03:40:29;21.50;99.90
64501;DHT22;50874;24.150;-110.320;2024-03-08T03:42:57;21.40;99.90
64501;DHT22;50874;24.150;-110.320;2024-03-08T03:45:24;21.40;99.90
64501;DHT22;50874;24.150;-110.320;2024-03-08T03:47:51;21.30;99.90
64501;DHT22;50874;24.150;-110.320;2024-03-08T03:50:21;21.30;99.90
64501;DHT22;50874;24.150;-110.320;2024-03-08T03:52:48;21.20;99.90
64501;DHT22;50874;24.150;-110.320;2024-03-08T03:55:15;21.20;99.90
64501;DHT22;50874;24.150;-110.320;2024-03-08T03:57:42;21.20;99.90
64501;DHT22;50874;24.150;-110.320;2024-03-08T04:00:09;21.20;99.90
64501;DHT22;50874;24.150;-110.320;2024-03-08T04:02:40;21.20;99.90
64501;DHT22;50874;24.150;-110.320;2024-03-08T04:05:09;21.10;99.90
64501;DHT22;50874;24.150;-110.320;2024-03-08T04:07:36;21.00;99.90
64501;DHT22;50874;24.150;-110.320;2024-03-08T04:10:04;21.00;99.90
64501;DHT22;50874;24.150;-110.320;2024-03-08T04:12:34;20.90;99.90
64501;DHT22;50874;24.150;-110.320;2024-03-08T04:15:01;20.90;99.90
64501;DHT22;50874;24.150;-110.320;2024-03-08T04:17:28;20.90;99.90
64501;DHT22;50874;24.150;-110.320;2024-03-08T04:19:54;20.90;99.90
64501;DHT22;50874;24.150;-110.320;2024-03-08T04:22:21;20.90;99.90
64501;DHT22;50874;24.150;-110.320;2024-03-08T04:24:48;20.90;99.90
64501;DHT22;50874;24.150;-110.320;2024-03-08T04:27:15;20.90;99.90
64501;DHT22;50874;24.150;-110.320;2024-03-08T04:29:41;20.90;99.90
64501;DHT22;50874;24.150;-110.320;2024-03-08T04:32:09;20.90;99.90
64501;DHT22;50874;24.150;-110.320;2024-03-08T04:34:36;20.90;99.90
64501;DHT22;50874;24.150;-110.320;2024-03-08T04:37:03;20.90;99.90
64501;DHT22;50874;24.150;-110.320;2024-03-08T04:39:32;20.90;99.90
64501;DHT22;50874;24.150;-110.320;2024-03-08T04:42:01;20.80;99.90
64501;DHT22;50874;24.150;-110.320;2024-03-08T04:44:33;20.80;99.90
64501;DHT22;50874;24.150;-110.320;2024-03-08T04:46:59;20.70;99.90
64501;DHT22;50874;24.150;-110.320;2024-03-08T04:49:26;20.70;99.90
64501;DHT22;50874;24.150;-110.320;2024-03-08T04:51:54;20.60;99.90
64501;DHT22;50874;24.150;-110.320;2024-03-08T04:54:20;20.60;99.90
64501;DHT22;50874;24.150;-110.320;2024-03-08T04:56:46;20.50;99.90
64501;DHT22;50874;24.150;-110.320;2024-03-08T04:59:13;20.50;99.90
64501;DHT22;50874;24.150;-110.320;2024-03-08T05:01:39;20.40;99.90
64501;DHT22;50874;24.150;-110.320;2024-03-08T05:04:06;20.40;99.90
64501;DHT22;50874;24.150;-110.320;2024-03-08T05:06:32;20.30;99.90
64501;DHT22;50874;24.150;-110.320;2024-03-08T05:08:59;20.30;99.90
64501;DHT22;50874;24.150;-110.320;2024-03-08T05:11:26;20.10;99.90
64501;DHT22;50874;24.150;-110.320;2024-03-08T05:13:52;20.10;99.90
64501;DHT22;50874;24.150;-110.320;2024-03-08T05:16:19;20.10;99.90
64501;DHT22;50874;24.150;-110.320;2024-03-08T05:18:48;20.00;99.90
64501;DHT22;50874;24.150;-110.320;2024-03-08T05:21:15;20.00;99.90
64501;DHT22;50874;24.150;-110.320;2024-03-08T05:23:43;20.00;99.90
64501;DHT22;50874;24.150;-110.320;2024-03-08T05:26:09;19.90;99.90
64501;DHT22;50874;24.150;-110.320;2024-03-08T05:28:36;19.90;99.90
64501;DHT22;50874;24.150;-110.320;2024-03-08T05:31:02;19.90;99.90
64501;DHT22;50874;24.150;-110.320;2024-03-08T05:33:29;19.90;99.90
64501;DHT22;50874;24.150;-110.320;2024-03-08T05:35:56;19.80;99.90
64501;DHT22;50874;24.150;-110.320;2024-03-08T05:38:22;19.80;99.90
64501;DHT22;50874;24.150;-110.320;2024-03-08T05:40:49;19.70;99.90
64501;DHT22;50874;24.150;-110.320;2024-03-08T05:43:17;19.70;99.90
64501;DHT22;50874;24.150;-110.320;2024-03-08T05:45:46;19.70;99.90
64501;DHT22;50874;24.150;-110.320;2024-03-08T05:48:13;19.60;99.90
64501;DHT22;50874;24.150;-110.320;2024-03-08T05:50:40;19.60;99.90
64501;DHT22;50874;24.150;-110.320;2024-03-08T05:53:06;19.40;99.90
64501;DHT22;50874;24.150;-110.320;2024-03-08T05:55:33;19.40;99.90
64501;DHT22;50874;24.150;-110.320;2024-03-08T05:58:02;19.40;99.90
64501;DHT22;50874;24.150;-110.320;2024-03-08T06:00:28;19.30;99.90
64501;DHT22;50874;24.150;-110.320;2024-03-08T06:02:57;19.30;99.90
64501;DHT22;50874;24.150;-110.320;2024-03-08T06:05:24;19.20;99.90
64501;DHT22;50874;24.150;-110.320;2024-03-08T06:07:51;19.20;99.90
64501;DHT22;50874;24.150;-110.320;2024-03-08T06:10:19;19.10;99.90
64501;DHT22;50874;24.150;-110.320;2024-03-08T06:12:46;19.00;99.90
64501;DHT22;50874;24.150;-110.320;2024-03-08T06:15:12;19.00;99.90
64501;DHT22;50874;24.150;-110.320;2024-03-08T06:17:42;19.00;99.90
64501;DHT22;50874;24.150;-110.320;2024-03-08T06:20:09;18.90;99.90
64501;DHT22;50874;24.150;-110.320;2024-03-08T06:22:39;18.90;99.90
64501;DHT22;50874;24.150;-110.320;2024-03-08T06:25:10;18.90;99.90
64501;DHT22;50874;24.150;-110.320;2024-03-08T06:27:41;18.90;99.90
64501;DHT22;50874;24.150;-110.320;2024-03-08T06:30:09;18.80;99.90
64501;DHT22;50874;24.150;-110.320;2024-03-08T06:32:37;18.80;99.90
64501;DHT22;50874;24.150;-110.320;2024-03-08T06:35:07;18.80;99.90
64501;DHT22;50874;24.150;-110.320;2024-03-08T06:37:34;18.70;99.90
64501;DHT22;50874;24.150;-110.320;2024-03-08T06:40:01;18.70;99.90
64501;DHT22;50874;24.150;-110.320;2024-03-08T06:42:29;18.70;99.90
64501;DHT22;50874;24.150;-110.320;2024-03-08T06:45:00;18.60;99.90
64501;DHT22;50874;24.150;-110.320;2024-03-08T06:47:31;18.60;99.90
64501;DHT22;50874;24.150;-110.320;2024-03-08T06:49:58;18.60;99.90
64501;DHT22;50874;24.150;-110.320;2024-03-08T06:52:24;18.50;99.90
64501;DHT22;50874;24.150;-110.320;2024-03-08T06:54:51;18.50;99.90
64501;DHT22;50874;24.150;-110.320;2024-03-08T06:57:18;18.40;99.90
64501;DHT22;50874;24.150;-110.320;2024-03-08T06:59:48;18.40;99.90
64501;DHT22;50874;24.150;-110.320;2024-03-08T07:02:15;18.40;99.90
64501;DHT22;50874;24.150;-110.320;2024-03-08T07:04:41;18.30;99.90
64501;DHT22;50874;24.150;-110.320;2024-03-08T07:07:08;18.20;99.90
64501;DHT22;50874;24.150;-110.320;2024-03-08T07:09:37;18.20;99.90
64501;DHT22;50874;24.150;-110.320;2024-03-08T07:12:04;18.10;99.90
64501;DHT22;50874;24.150;-110.320;2024-03-08T07:14:30;18.10;99.90
64501;DHT22;50874;24.150;-110.320;2024-03-08T07:16:57;18.00;99.90
64501;DHT22;50874;24.150;-110.320;2024-03-08T07:19:23;18.00;99.90
64501;DHT22;50874;24.150;-110.320;2024-03-08T07:21:50;17.90;99.90
64501;DHT22;50874;24.150;-110.320;2024-03-08T07:24:16;17.80;99.90
64501;DHT22;50874;24.150;-110.320;2024-03-08T07:26:46;17.80;99.90
64501;DHT22;50874;24.150;-110.320;2024-03-08T07:29:16;17.80;99.90
64501;DHT22;50874;24.150;-110.320;2024-03-08T07:31:42;17.70;99.90
64501;DHT22;50874;24.150;-110.320;2024-03-08T07:34:32;17.70;99.90
64501;DHT22;50874;24.150;-110.320;2024-03-08T07:36:59;17.60;99.90
64501;DHT22;50874;24.150;-110.320;2024-03-08T07:39:26;17.60;99.90
64501;DHT22;50874;24.150;-110.320;2024-03-08T07:41:52;17.50;99.90
64501;DHT22;50874;24.150;-110.320;2024-03-08T07:44:19;17.50;99.90
64501;DHT22;50874;24.150;-110.320;2024-03-08T07:46:45;17.40;99.90
64501;DHT22;50874;24.150;-110.320;2024-03-08T07:49:12;17.30;99.90
64501;DHT22;50874;24.150;-110.320;2024-03-08T07:51:40;17.30;99.90
64501;DHT22;50874;24.150;-110.320;2024-03-08T07:54:06;17.20;99.90
64501;DHT22;50874;24.150;-110.320;2024-03-08T07:56:35;17.20;99.90
64501;DHT22;50874;24.150;-110.320;2024-03-08T07:59:02;17.10;99.90
64501;DHT22;50874;24.150;-110.320;2024-03-08T08:01:32;17.10;99.90
64501;DHT22;50874;24.150;-110.320;2024-03-08T08:03:59;17.00;99.90
64501;DHT22;50874;24.150;-110.320;2024-03-08T08:06:29;17.00;99.90
64501;DHT22;50874;24.150;-110.320;2024-03-08T08:08:59;16.90;99.90
64501;DHT22;50874;24.150;-110.320;2024-03-08T08:11:27;16.80;99.90
64501;DHT22;50874;24.150;-110.320;2024-03-08T08:13:56;16.80;99.90
64501;DHT22;50874;24.150;-110.320;2024-03-08T08:16:26;16.70;99.90
64501;DHT22;50874;24.150;-110.320;2024-03-08T08:18:52;16.70;99.90
64501;DHT22;50874;24.150;-110.320;2024-03-08T08:21:19;16.70;99.90
64501;DHT22;50874;24.150;-110.320;2024-03-08T08:23:45;16.60;99.90
64501;DHT22;50874;24.150;-110.320;2024-03-08T08:26:12;16.60;99.90
64501;DHT22;50874;24.150;-110.320;2024-03-08T08:28:39;16.60;99.90
64501;DHT22;50874;24.150;-110.320;2024-03-08T08:31:06;16.50;99.90
64501;DHT22;50874;24.150;-110.320;2024-03-08T08:33:34;16.40;99.90
64501;DHT22;50874;24.150;-110.320;2024-03-08T08:36:01;16.40;99.90
64501;DHT22;50874;24.150;-110.320;2024-03-08T08:38:28;16.30;99.90
64501;DHT22;50874;24.150;-110.320;2024-03-08T08:40:54;16.30;99.90
64501;DHT22;50874;24.150;-110.320;2024-03-08T08:43:21;16.30;99.90
64501;DHT22;50874;24.150;-110.320;2024-03-08T08:45:50;16.30;99.90
64501;DHT22;50874;24.150;-110.320;2024-03-08T08:48:20;16.30;99.90
64501;DHT22;50874;24.150;-110.320;2024-03-08T08:50:47;16.20;99.90
64501;DHT22;50874;24.150;-110.320;2024-03-08T08:53:14;16.30;99.90
64501;DHT22;50874;24.150;-110.320;2024-03-08T08:55:41;16.20;99.90
64501;DHT22;50874;24.150;-110.320;2024-03-08T08:58:07;16.10;99.90
64501;DHT22;50874;24.150;-110.320;2024-03-08T09:00:33;16.10;99.90
64501;DHT22;50874;24.150;-110.320;2024-03-08T09:03:00;16.10;99.90
64501;DHT22;50874;24.150;-110.320;2024-03-08T09:05:28;16.10;99.90
64501;DHT22;50874;24.150;-110.320;2024-03-08T09:07:55;16.00;99.90
64501;DHT22;50874;24.150;-110.320;2024-03-08T09:10:21;15.90;99.90
64501;DHT22;50874;24.150;-110.320;2024-03-08T09:12:48;15.90;99.90
64501;DHT22;50874;24.150;-110.320;2024-03-08T09:15:14;15.80;99.90
64501;DHT22;50874;24.150;-110.320;2024-03-08T09:17:43;15.80;99.90
64501;DHT22;50874;24.150;-110.320;2024-03-08T09:20:10;15.80;99.90
64501;DHT22;50874;24.150;-110.320;2024-03-08T09:22:49;15.80;99.90
64501;DHT22;50874;24.150;-110.320;2024-03-08T09:25:16;15.80;99.90
64501;DHT22;50874;24.150;-110.320;2024-03-08T09:27:42;15.80;99.90
64501;DHT22;50874;24.150;-110.320;2024-03-08T09:30:09;15.80;99.90
64501;DHT22;50874;24.150;-110.320;2024-03-08T09:32:39;15.70;99.90
64501;DHT22;50874;24.150;-110.320;2024-03-08T09:35:05;15.70;99.90
64501;DHT22;50874;24.150;-110.320;2024-03-08T09:37:33;15.70;99.90
64501;DHT22;50874;24.150;-110.320;2024-03-08T09:40:00;15.70;99.90
64501;DHT22;50874;24.150;-110.320;2024-03-08T09:42:30;15.70;99.90
64501;DHT22;50874;24.150;-110.320;2024-03-08T09:44:58;15.60;99.90
64501;DHT22;50874;24.150;-110.320;2024-03-08T09:47:25;15.60;99.90
64501;DHT22;50874;24.150;-110.320;2024-03-08T09:49:59;15.60;99.90
64501;DHT22;50874;24.150;-110.320;2024-03-08T09:52:27;15.50;99.90
64501;DHT22;50874;24.150;-110.320;2024-03-08T09:54:56;15.50;99.90
64501;DHT22;50874;24.150;-110.320;2024-03-08T09:57:24;15.50;99.90
64501;DHT22;50874;24.150;-110.320;2024-03-08T09:59:51;15.40;99.90
64501;DHT22;50874;24.150;-110.320;2024-03-08T10:02:18;15.40;99.90
64501;DHT22;50874;24.150;-110.320;2024-03-08T10:04:44;15.30;99.90
64501;DHT22;50874;24.150;-110.320;2024-03-08T10:07:14;15.30;99.90
64501;DHT22;50874;24.150;-110.320;2024-03-08T10:09:40;15.30;99.90
64501;DHT22;50874;24.150;-110.320;2024-03-08T10:12:13;15.20;99.90
64501;DHT22;50874;24.150;-110.320;2024-03-08T10:14:40;15.20;99.90
64501;DHT22;50874;24.150;-110.320;2024-03-08T10:17:07;15.10;99.90
64501;DHT22;50874;24.150;-110.320;2024-03-08T10:19:34;15.10;99.90
64501;DHT22;50874;24.150;-110.320;2024-03-08T10:22:00;15.00;99.90
64501;DHT22;50874;24.150;-110.320;2024-03-08T10:24:27;15.00;99.90
64501;DHT22;50874;24.150;-110.320;2024-03-08T10:27:02;14.90;99.90
64501;DHT22;50874;24.150;-110.320;2024-03-08T10:29:33;14.90;99.90
64501;DHT22;50874;24.150;-110.320;2024-03-08T10:31:59;14.90;99.90
64501;DHT22;50874;24.150;-110.320;2024-03-08T10:34:25;14.80;99.90
64501;DHT22;50874;24.150;-110.320;2024-03-08T10:36:52;14.80;99.90
64501;DHT22;50874;24.150;-110.320;2024-03-08T10:39:22;14.70;99.90
64501;DHT22;50874;24.150;-110.320;2024-03-08T10:41:53;14.70;99.90
64501;DHT22;50874;24.150;-110.320;2024-03-08T10:44:49;14.70;99.90
64501;DHT22;50874;24.150;-110.320;2024-03-08T10:47:19;14.60;99.90
64501;DHT22;50874;24.150;-110.320;2024-03-08T10:50:18;14.60;99.90
64501;DHT22;50874;24.150;-110.320;2024-03-08T10:52:50;14.50;99.90
64501;DHT22;50874;24.150;-110.320;2024-03-08T10:55:18;14.50;99.90
64501;DHT22;50874;24.150;-110.320;2024-03-08T10:57:46;14.50;99.90
64501;DHT22;50874;24.150;-110.320;2024-03-08T11:00:14;14.40;99.90
64501;DHT22;50874;24.150;-110.320;2024-03-08T11:02:45;14.40;99.90
64501;DHT22;50874;24.150;-110.320;2024-03-08T11:05:38;14.40;99.90
64501;DHT22;50874;24.150;-110.320;2024-03-08T11:08:18;14.40;99.90
64501;DHT22;50874;24.150;-110.320;2024-03-08T11:10:51;14.10;99.90
64501;DHT22;50874;24.150;-110.320;2024-03-08T11:13:40;14.10;99.90
64501;DHT22;50874;24.150;-110.320;2024-03-08T11:18:55;13.90;99.90
64501;DHT22;50874;24.150;-110.320;2024-03-08T11:21:26;13.90;99.90
64501;DHT22;50874;24.150;-110.320;2024-03-08T11:24:06;13.80;99.90
64501;DHT22;50874;24.150;-110.320;2024-03-08T11:26:33;13.70;99.90
64501;DHT22;50874;24.150;-110.320;2024-03-08T11:32:17;13.70;99.90
64501;DHT22;50874;24.150;-110.320;2024-03-08T11:34:48;13.60;99.90
64501;DHT22;50874;24.150;-110.320;2024-03-08T11:37:21;13.60;99.90
64501;DHT22;50874;24.150;-110.320;2024-03-08T11:39:54;13.60;99.90
64501;DHT22;50874;24.150;-110.320;2024-03-08T11:42:30;13.50;99.90
64501;DHT22;50874;24.150;-110.320;2024-03-08T11:44:56;13.40;99.90
64501;DHT22;50874;24.150;-110.320;2024-03-08T11:47:24;13.10;99.90
64501;DHT22;50874;24.150;-110.320;2024-03-08T11:49:52;13.00;99.90
64501;DHT22;50874;24.150;-110.320;2024-03-08T11:52:19;12.90;99.90
64501;DHT22;50874;24.150;-110.320;2024-03-08T11:54:53;12.90;99.90
64501;DHT22;50874;24.150;-110.320;2024-03-08T11:57:22;12.90;99.90
64501;DHT22;50874;24.150;-110.320;2024-03-08T11:59:53;12.90;99.90
64501;DHT22;50874;24.150;-110.320;2024-03-08T12:02:20;12.80;99.90
64501;DHT22;50874;24.150;-110.320;2024-03-08T12:04:47;12.80;99.90
64501;DHT22;50874;24.150;-110.320;2024-03-08T12:07:13;12.80;99.90
64501;DHT22;50874;24.150;-110.320;2024-03-08T12:09:40;12.90;99.90
64501;DHT22;50874;24.150;-110.320;2024-03-08T12:12:12;12.90;99.90
64501;DHT22;50874;24.150;-110.320;2024-03-08T12:14:42;12.90;99.90
64501;DHT22;50874;24.150;-110.320;2024-03-08T12:17:09;12.90;99.90
64501;DHT22;50874;24.150;-110.320;2024-03-08T12:19:36;12.80;99.90
64501;DHT22;50874;24.150;-110.320;2024-03-08T12:22:10;12.70;99.90
64501;DHT22;50874;24.150;-110.320;2024-03-08T12:24:37;12.60;99.90
64501;DHT22;50874;24.150;-110.320;2024-03-08T12:27:18;12.40;99.90
64501;DHT22;50874;24.150;-110.320;2024-03-08T12:29:45;12.30;99.90
64501;DHT22;50874;24.150;-110.320;2024-03-08T12:32:12;12.20;99.90
64501;DHT22;50874;24.150;-110.320;2024-03-08T12:34:40;12.20;99.90
64501;DHT22;50874;24.150;-110.320;2024-03-08T12:37:06;12.10;99.90
64501;DHT22;50874;24.150;-110.320;2024-03-08T12:39:35;12.00;99.90
64501;DHT22;50874;24.150;-110.320;2024-03-08T12:42:03;12.00;99.90
64501;DHT22;50874;24.150;-110.320;2024-03-08T12:44:29;12.00;99.90
64501;DHT22;50874;24.150;-110.320;2024-03-08T12:46:56;12.00;99.90
64501;DHT22;50874;24.150;-110.320;2024-03-08T12:49:24;12.00;99.90
64501;DHT22;50874;24.150;-110.320;2024-03-08T12:51:52;11.90;99.90
64501;DHT22;50874;24.150;-110.320;2024-03-08T12:54:18;11.90;99.90
64501;DHT22;50874;24.150;-110.320;2024-03-08T12:56:49;11.90;99.90
64501;DHT22;50874;24.150;-110.320;2024-03-08T12:59:19;11.90;99.90
64501;DHT22;50874;24.150;-110.320;2024-03-08T13:01:47;11.80;99.90
64501;DHT22;50874;24.150;-110.320;2024-03-08T13:04:14;11.80;99.90
64501;DHT22;50874;24.150;-110.320;2024-03-08T13:06:41;11.80;99.90
64501;DHT22;50874;24.150;-110.320;2024-03-08T13:09:07;11.80;99.90
64501;DHT22;50874;24.150;-110.320;2024-03-08T13:11:34;11.80;99.90
64501;DHT22;50874;24.150;-110.320;2024-03-08T13:14:03;11.70;99.90
64501;DHT22;50874;24.150;-110.320;2024-03-08T13:16:31;11.70;99.90
64501;DHT22;50874;24.150;-110.320;2024-03-08T13:18:57;11.60;99.90
64501;DHT22;50874;24.150;-110.320;2024-03-08T13:21:24;11.60;99.90
64501;DHT22;50874;24.150;-110.320;2024-03-08T13:23:50;11.60;99.90
64501;DHT22;50874;24.150;-110.320;2024-03-08T13:26:19;11.60;99.90
64501;DHT22;50874;24.150;-110.320;2024-03-08T13:28:46;11.50;99.90
64501;DHT22;50874;24.150;-110.320;2024-03-08T13:31:15;11.50;99.90
64501;DHT22;50874;24.150;-110.320;2024-03-08T13:33:41;11.50;99.90
64501;DHT22;50874;24.150;-110.320;2024-03-08T13:36:11;11.40;99.90
64501;DHT22;50874;24.150;-110.320;2024-03-08T13:38:48;11.40;99.90
64501;DHT22;50874;24.150;-110.320;2024-03-08T13:41:15;11.40;99.90
64501;DHT22;50874;24.150;-110.320;2024-03-08T13:43:43;11.40;99.90
64501;DHT22;50874;24.150;-110.320;2024-03-08T13:46:11;11.50;99.90
64501;DHT22;50874;24.150;-110.320;2024-03-08T13:48:38;11.60;99.90
64501;DHT22;50874;24.150;-110.320;2024-03-08T13:51:08;11.60;99.90
64501;DHT22;50874;24.150;-110.320;2024-03-08T13:53:36;11.70;99.90
64501;DHT22;50874;24.150;-110.320;2024-03-08T13:56:03;11.70;99.90
64501;DHT22;50874;24.150;-110.320;2024-03-08T13:58:31;11.70;99.90
64501;DHT22;50874;24.150;-110.320;2024-03-08T14:00:58;11.80;99.90
64501;DHT22;50874;24.150;-110.320;2024-03-08T14:03:24;11.90;99.90
64501;DHT22;50874;24.150;-110.320;2024-03-08T14:05:51;11.90;99.90
64501;DHT22;50874;24.150;-110.320;2024-03-08T14:08:18;12.00;99.90
64501;DHT22;50874;24.150;-110.320;2024-03-08T14:10:44;12.00;99.90
64501;DHT22;50874;24.150;-110.320;2024-03-08T14:13:13;12.10;99.90
64501;DHT22;50874;24.150;-110.320;2024-03-08T14:15:42;12.20;99.90
64501;DHT22;50874;24.150;-110.320;2024-03-08T14:18:08;12.30;99.90
64501;DHT22;50874;24.150;-110.320;2024-03-08T14:20:35;12.40;99.90
64501;DHT22;50874;24.150;-110.320;2024-03-08T14:23:01;12.40;99.90
64501;DHT22;50874;24.150;-110.320;2024-03-08T14:25:28;12.50;99.90
64501;DHT22;50874;24.150;-110.320;2024-03-08T14:27:55;12.60;99.90
64501;DHT22;50874;24.150;-110.320;2024-03-08T14:30:28;12.80;99.90
64501;DHT22;50874;24.150;-110.320;2024-03-08T14:33:05;13.00;99.90
64501;DHT22;50874;24.150;-110.320;2024-03-08T14:35:31;13.30;99.90
64501;DHT22;50874;24.150;-110.320;2024-03-08T14:37:58;13.70;99.90
64501;DHT22;50874;24.150;-110.320;2024-03-08T14:40:26;14.20;99.90
64501;DHT22;50874;24.150;-110.320;2024-03-08T14:42:53;14.70;99.90
64501;DHT22;50874;24.150;-110.320;2024-03-08T14:45:20;15.10;99.90
64501;DHT22;50874;24.150;-110.320;2024-03-08T14:47:47;15.50;99.90
64501;DHT22;50874;24.150;-110.320;2024-03-08T14:50:20;15.80;99.90
64501;DHT22;50874;24.150;-110.320;2024-03-08T14:52:48;16.10;99.90
64501;DHT22;50874;24.150;-110.320;2024-03-08T14:55:16;16.20;99.90
64501;DHT22;50874;24.150;-110.320;2024-03-08T14:57:43;16.30;99.90
64501;DHT22;50874;24.150;-110.320;2024-03-08T15:00:15;16.40;99.90